createdAt,value
2023-02-12T00:00:01.693Z,101886.81
2023-02-12T00:04:05.560Z,101885.94
2023-02-12T00:08:08.730Z,101886.84
2023-02-12T00:12:10.676Z,101906.69
2023-02-12T00:16:18.058Z,101912.75
2023-02-12T00:20:20.126Z,101924.00
2023-02-12T00:24:22.198Z,101933.50
2023-02-12T00:28:24.200Z,101951.66
2023-02-12T00:32:26.006Z,101928.31
2023-02-12T00:36:30.677Z,101930.91
2023-02-12T00:40:32.784Z,101940.41
2023-02-12T00:44:35.025Z,101944.72
2023-02-12T00:48:38.415Z,101955.94
2023-02-12T00:52:40.334Z,101962.00
2023-02-12T00:56:43.191Z,101968.91
2023-02-12T01:00:45.173Z,101984.44
2023-02-12T01:04:47.200Z,101980.97
2023-02-12T01:08:53.199Z,101987.03
2023-02-12T01:12:55.803Z,101996.47
2023-02-12T01:16:57.577Z,102007.75
2023-02-12T01:20:59.687Z,102013.78
2023-02-12T01:25:01.434Z,102019.78
2023-02-12T01:29:06.291Z,102027.59
2023-02-12T01:33:08.272Z,102026.72
2023-02-12T01:37:09.993Z,102030.19
2023-02-12T01:41:21.235Z,102035.34
2023-02-12T01:45:23.893Z,102041.34
2023-02-12T01:49:38.848Z,102048.28
2023-02-12T01:53:46.957Z,102040.50
2023-02-12T01:57:49.467Z,102047.41
2023-02-12T02:01:53.354Z,102050.84
2023-02-12T02:06:07.457Z,102060.25
2023-02-12T02:10:10.985Z,102074.91
2023-02-12T02:14:31.601Z,102087.88
2023-02-12T02:18:40.820Z,102099.91
2023-02-12T02:23:10.960Z,102114.63
2023-02-12T02:27:20.633Z,102111.16
2023-02-12T02:31:42.757Z,102133.66
2023-02-12T02:35:57.594Z,102134.50
2023-02-12T02:40:12.817Z,102132.78
2023-02-12T02:44:20.473Z,102155.19
2023-02-12T02:48:30.547Z,102156.03
2023-02-12T02:52:49.657Z,102162.13
2023-02-12T02:56:58.730Z,102170.78
2023-02-12T03:01:06.126Z,102176.84
2023-02-12T03:05:19.068Z,102183.66
2023-02-12T03:09:35.207Z,102210.41
2023-02-12T03:13:44.935Z,102232.84
2023-02-12T03:17:49.251Z,102241.50
2023-02-12T03:22:00.458Z,102230.34
2023-02-12T03:26:09.659Z,102253.72
2023-02-12T03:30:12.119Z,102259.78
2023-02-12T03:34:23.728Z,102264.91
2023-02-12T03:38:38.668Z,102270.91
2023-02-12T03:43:02.367Z,102281.28
2023-02-12T03:47:23.199Z,102290.72
2023-02-12T03:51:38.280Z,102304.59
2023-02-12T03:55:43.484Z,102306.28
2023-02-12T03:59:45.840Z,102320.06
2023-02-12T04:03:48.262Z,102316.59
2023-02-12T04:07:51.908Z,102318.22
2023-02-12T04:12:34.849Z,102309.59
2023-02-12T04:16:45.865Z,102315.44
2023-02-12T04:20:57.375Z,102328.41
2023-02-12T04:25:16.364Z,102331.88
2023-02-12T04:29:21.341Z,102332.66
2023-02-12T04:33:27.717Z,102339.34
2023-02-12T04:37:36.015Z,102345.59
2023-02-12T04:41:40.745Z,102352.38
2023-02-12T04:45:42.766Z,102344.69
2023-02-12T04:49:44.847Z,102356.69
2023-02-12T04:53:47.586Z,102363.50
2023-02-12T04:57:49.566Z,102364.25
2023-02-12T05:01:51.749Z,102370.19
2023-02-12T05:05:53.966Z,102390.94
2023-02-12T05:09:56.096Z,102389.50
2023-02-12T05:13:59.073Z,102404.88
2023-02-12T05:18:01.164Z,102408.16
2023-02-12T05:22:03.638Z,102427.38
2023-02-12T05:26:14.907Z,102430.00
2023-02-12T05:30:17.238Z,102429.16
2023-02-12T05:34:20.290Z,102449.84
2023-02-12T05:38:22.464Z,102450.75
2023-02-12T05:42:24.665Z,102451.59
2023-02-12T05:46:26.684Z,102462.78
2023-02-12T05:50:28.776Z,102474.91
2023-02-12T05:54:35.284Z,102463.63
2023-02-12T05:58:37.499Z,102481.66
2023-02-12T06:02:39.565Z,102477.34
2023-02-12T06:06:42.327Z,102491.09
2023-02-12T06:10:44.319Z,102503.97
2023-02-12T06:14:46.396Z,102510.94
2023-02-12T06:18:49.441Z,102522.03
2023-02-12T06:22:51.390Z,102525.34
2023-02-12T06:26:53.362Z,102530.41
2023-02-12T06:30:55.423Z,102529.56
2023-02-12T06:34:57.445Z,102535.72
2023-02-12T06:39:02.347Z,102538.13
2023-02-12T06:43:04.420Z,102540.56
2023-02-12T06:47:06.315Z,102535.84
2023-02-12T06:51:14.803Z,102534.91
2023-02-12T06:55:17.196Z,102524.13
2023-02-12T06:59:19.155Z,102529.13
2023-02-12T07:03:21.121Z,102535.09
2023-02-12T07:07:23.018Z,102534.38
2023-02-12T07:11:30.826Z,102534.47
2023-02-12T07:15:32.765Z,102544.06
2023-02-12T07:19:34.730Z,102567.50
2023-02-12T07:23:36.833Z,102564.34
2023-02-12T07:27:39.144Z,102565.34
2023-02-12T07:31:41.731Z,102571.81
2023-02-12T07:35:43.897Z,102567.75
2023-02-12T07:39:45.489Z,102573.69
2023-02-12T07:43:49.389Z,102572.13
2023-02-12T07:47:51.690Z,102585.25
2023-02-12T07:51:55.907Z,102582.91
2023-02-12T07:56:07.731Z,102583.09
2023-02-12T08:00:10.581Z,102587.47
2023-02-12T08:04:18.087Z,102594.34
2023-02-12T08:08:20.269Z,102607.50
2023-02-12T08:12:23.729Z,102598.94
2023-02-12T08:16:27.714Z,102608.63
2023-02-12T08:20:29.493Z,102619.13
2023-02-12T08:24:31.543Z,102627.84
2023-02-12T08:28:33.857Z,102626.06
2023-02-12T08:32:35.689Z,102623.66
2023-02-12T08:36:40.156Z,102625.34
2023-02-12T08:40:42.247Z,102618.38
2023-02-12T08:44:44.222Z,102629.59
2023-02-12T08:48:46.676Z,102622.81
2023-02-12T08:52:48.342Z,102628.13
2023-02-12T08:56:50.831Z,102625.56
2023-02-12T09:00:53.347Z,102620.38
2023-02-12T09:04:55.463Z,102620.72
2023-02-12T09:08:57.370Z,102627.59
2023-02-12T09:12:59.529Z,102626.44
2023-02-12T09:17:01.653Z,102628.25
2023-02-12T09:21:06.715Z,102629.97
2023-02-12T09:25:08.504Z,102638.75
2023-02-12T09:29:10.534Z,102648.38
2023-02-12T09:33:12.564Z,102656.91
2023-02-12T09:37:14.586Z,102650.19
2023-02-12T09:41:35.046Z,102656.31
2023-02-12T09:45:51.307Z,102660.00
2023-02-12T09:50:01.635Z,102668.59
2023-02-12T09:54:14.181Z,102666.88
2023-02-12T09:58:35.448Z,102668.72
2023-02-12T10:02:39.903Z,102668.91
2023-02-12T10:06:55.997Z,102664.50
2023-02-12T10:11:38.357Z,102663.81
2023-02-12T10:16:05.198Z,102646.47
2023-02-12T10:20:34.897Z,102645.69
2023-02-12T10:24:53.692Z,102655.94
2023-02-12T10:28:59.221Z,102657.72
2023-02-12T10:33:07.584Z,102665.47
2023-02-12T10:37:18.997Z,102672.59
2023-02-12T10:41:23.124Z,102667.44
2023-02-12T10:45:36.295Z,102654.53
2023-02-12T10:49:38.406Z,102656.06
2023-02-12T10:53:43.370Z,102648.47
2023-02-12T10:57:45.388Z,102650.19
2023-02-12T11:01:47.931Z,102656.19
2023-02-12T11:05:50.182Z,102656.31
2023-02-12T11:09:54.764Z,102650.22
2023-02-12T11:14:21.437Z,102658.81
2023-02-12T11:18:26.248Z,102662.44
2023-02-12T11:22:28.429Z,102663.28
2023-02-12T11:26:31.219Z,102658.16
2023-02-12T11:30:33.559Z,102655.47
2023-02-12T11:34:36.546Z,102649.44
2023-02-12T11:38:58.971Z,102645.84
2023-02-12T11:43:05.780Z,102650.16
2023-02-12T11:47:18.658Z,102638.06
2023-02-12T11:51:29.719Z,102636.34
2023-02-12T11:55:35.763Z,102639.84
2023-02-12T11:59:42.877Z,102640.72
2023-02-12T12:04:06.719Z,102639.91
2023-02-12T12:08:19.463Z,102639.06
2023-02-12T12:12:48.129Z,102633.06
2023-02-12T12:17:19.213Z,102633.94
2023-02-12T12:21:42.456Z,102618.28
2023-02-12T12:25:52.483Z,102620.91
2023-02-12T12:30:06.690Z,102614.81
2023-02-12T12:34:13.355Z,102620.88
2023-02-12T12:38:40.763Z,102605.25
2023-02-12T12:43:14.281Z,102607.00
2023-02-12T12:47:55.983Z,102613.09
2023-02-12T12:52:23.742Z,102609.59
2023-02-12T12:56:36.950Z,102609.59
2023-02-12T13:00:57.204Z,102615.66
2023-02-12T13:05:40.707Z,102596.63
2023-02-12T13:10:04.427Z,102591.44
2023-02-12T13:14:41.375Z,102589.69
2023-02-12T13:19:07.599Z,102588.84
2023-02-12T13:23:48.406Z,102594.03
2023-02-12T13:27:51.907Z,102594.91
2023-02-12T13:32:28.874Z,102601.81
2023-02-12T13:36:31.056Z,102596.63
2023-02-12T13:40:34.807Z,102597.47
2023-02-12T13:44:43.669Z,102599.22
2023-02-12T13:48:48.390Z,102603.56
2023-02-12T13:53:02.429Z,102607.00
2023-02-12T13:57:13.375Z,102600.03
2023-02-12T14:01:36.370Z,102599.09
2023-02-12T14:05:39.433Z,102596.41
2023-02-12T14:09:51.756Z,102599.03
2023-02-12T14:14:01.605Z,102599.97
2023-02-12T14:18:07.065Z,102593.91
2023-02-12T14:22:33.703Z,102605.94
2023-02-12T14:26:38.273Z,102600.69
2023-02-12T14:30:41.019Z,102597.16
2023-02-12T14:34:42.803Z,102602.31
2023-02-12T14:38:47.842Z,102599.66
2023-02-12T14:42:56.258Z,102597.00
2023-02-12T14:47:05.172Z,102588.31
2023-02-12T14:51:16.917Z,102582.22
2023-02-12T14:55:24.904Z,102583.88
2023-02-12T14:59:32.535Z,102591.59
2023-02-12T15:03:37.547Z,102588.97
2023-02-12T15:07:52.324Z,102598.41
2023-02-12T15:12:05.676Z,102594.84
2023-02-12T15:16:15.418Z,102597.50
2023-02-12T15:20:23.629Z,102589.53
2023-02-12T15:24:27.052Z,102594.81
2023-02-12T15:28:35.583Z,102593.91
2023-02-12T15:32:38.967Z,102601.69
2023-02-12T15:36:45.840Z,102598.91
2023-02-12T15:40:59.813Z,102600.66
2023-02-12T15:45:14.966Z,102603.25
2023-02-12T15:49:22.317Z,102605.53
2023-02-12T15:53:28.167Z,102607.13
2023-02-12T15:57:30.456Z,102606.19
2023-02-12T16:01:35.370Z,102596.66
2023-02-12T16:05:37.903Z,102591.41
2023-02-12T16:09:42.381Z,102591.31
2023-02-12T16:13:48.755Z,102592.22
2023-02-12T16:17:51.340Z,102577.53
2023-02-12T16:22:05.007Z,102586.03
2023-02-12T16:26:07.131Z,102568.75
2023-02-12T16:30:27.312Z,102557.44
2023-02-12T16:34:36.146Z,102564.28
2023-02-12T16:38:41.442Z,102552.81
2023-02-12T16:42:47.462Z,102541.38
2023-02-12T16:46:55.626Z,102534.19
2023-02-12T16:50:59.135Z,102520.88
2023-02-12T16:55:01.974Z,102516.41
2023-02-12T16:59:05.447Z,102505.84
2023-02-12T17:03:10.477Z,102496.53
2023-02-12T17:07:24.450Z,102499.09
2023-02-12T17:11:28.304Z,102495.38
2023-02-12T17:15:35.803Z,102498.88
2023-02-12T17:19:38.191Z,102485.09
2023-02-12T17:23:41.658Z,102486.91
2023-02-12T17:27:43.700Z,102500.63
2023-02-12T17:31:46.038Z,102501.59
2023-02-12T17:35:48.129Z,102508.50
2023-02-12T17:39:50.165Z,102508.59
2023-02-12T17:43:52.321Z,102517.22
2023-02-12T17:47:54.591Z,102524.16
2023-02-12T17:51:56.685Z,102523.03
2023-02-12T17:55:59.147Z,102535.75
2023-02-12T18:00:01.330Z,102510.13
2023-02-12T18:04:12.884Z,102500.72
2023-02-12T18:08:14.886Z,102483.06
2023-02-12T18:12:17.051Z,102479.97
2023-02-12T18:16:19.541Z,102490.50
2023-02-12T18:20:22.274Z,102501.19
2023-02-12T18:24:24.292Z,102501.41
2023-02-12T18:28:26.300Z,102497.25
2023-02-12T18:32:28.488Z,102494.75
2023-02-12T18:36:30.472Z,102498.31
2023-02-12T18:40:32.419Z,102507.88
2023-02-12T18:44:34.856Z,102501.91
2023-02-12T18:48:37.001Z,102492.44
2023-02-12T18:52:39.050Z,102489.97
2023-02-12T18:56:44.396Z,102482.13
2023-02-12T19:00:46.556Z,102470.16
2023-02-12T19:04:48.573Z,102470.25
2023-02-12T19:08:55.983Z,102461.63
2023-02-12T19:12:58.811Z,102468.66
2023-02-12T19:17:00.978Z,102460.00
2023-02-12T19:21:14.277Z,102466.16
2023-02-12T19:25:16.265Z,102471.44
2023-02-12T19:29:18.414Z,102472.28
2023-02-12T19:33:20.496Z,102460.16
2023-02-12T19:37:22.985Z,102459.31
2023-02-12T19:41:26.962Z,102449.78
2023-02-12T19:45:28.997Z,102450.69
2023-02-12T19:49:31.031Z,102433.31
2023-02-12T19:53:33.000Z,102432.50
2023-02-12T19:57:37.907Z,102438.56
2023-02-12T20:01:40.585Z,102442.03
2023-02-12T20:05:46.487Z,102434.22
2023-02-12T20:09:51.395Z,102426.53
2023-02-12T20:13:53.764Z,102425.66
2023-02-12T20:17:56.047Z,102423.91
2023-02-12T20:22:01.492Z,102426.50
2023-02-12T20:26:05.857Z,102425.63
2023-02-12T20:30:08.558Z,102421.31
2023-02-12T20:34:15.063Z,102423.88
2023-02-12T20:38:17.205Z,102407.47
2023-02-12T20:42:19.146Z,102385.81
2023-02-12T20:46:23.244Z,102374.53
2023-02-12T20:50:25.396Z,102367.66
2023-02-12T20:54:27.519Z,102371.09
2023-02-12T20:58:29.585Z,102366.78
2023-02-12T21:02:31.650Z,102359.94
2023-02-12T21:06:33.944Z,102360.78
2023-02-12T21:10:35.622Z,102355.63
2023-02-12T21:14:37.655Z,102359.09
2023-02-12T21:18:39.691Z,102353.03
2023-02-12T21:22:41.374Z,102353.03
2023-02-12T21:26:43.873Z,102353.06
2023-02-12T21:30:46.314Z,102353.06
2023-02-12T21:34:49.047Z,102335.72
2023-02-12T21:38:52.194Z,102333.13
2023-02-12T21:42:55.438Z,102323.59
2023-02-12T21:46:57.550Z,102320.97
2023-02-12T21:50:59.935Z,102317.53
2023-02-12T21:55:02.273Z,102323.59
2023-02-12T21:59:04.694Z,102330.53
2023-02-12T22:03:06.395Z,102324.47
2023-02-12T22:07:08.543Z,102328.78
2023-02-12T22:11:12.001Z,102327.91
2023-02-12T22:15:13.718Z,102323.56
2023-02-12T22:19:15.860Z,102322.69
2023-02-12T22:23:17.845Z,102332.25
2023-02-12T22:27:19.797Z,102325.28
2023-02-12T22:31:29.307Z,102333.09
2023-02-12T22:35:32.281Z,102326.13
2023-02-12T22:39:34.232Z,102314.91
2023-02-12T22:43:39.982Z,102317.50
2023-02-12T22:47:41.706Z,102320.94
2023-02-12T22:51:43.722Z,102328.78
2023-02-12T22:55:45.855Z,102313.16
2023-02-12T22:59:49.131Z,102317.50
2023-02-12T23:03:51.609Z,102317.50
2023-02-12T23:07:53.587Z,102319.25
2023-02-12T23:11:55.751Z,102307.09
2023-02-12T23:15:58.820Z,102302.75
2023-02-12T23:20:00.566Z,102300.16
2023-02-12T23:24:02.736Z,102287.16
2023-02-12T23:28:04.976Z,102296.69
2023-02-12T23:32:06.957Z,102292.31
2023-02-12T23:36:09.468Z,102277.63
2023-02-12T23:40:11.973Z,102283.66
2023-02-12T23:44:13.981Z,102259.38
2023-02-12T23:48:15.766Z,102260.22
2023-02-12T23:52:17.738Z,102244.63
2023-02-12T23:56:19.657Z,102246.34
